Time;durP1;ratioP1;P1;durP2;ratioP2;P2;SDS_P1;SDS_P2;PMS_P1;PMS_P2;Temp;Humidity;BMP_temperature;BMP_pressure;BME280_temperature;BME280_humidity;BME280_pressure;Samples;Min_cycle;Max_cycle;Signal;HPM_P1;HPM_P2
2022/01/05 00:02:13;;;;;;;0.00;0.00;;;2.60;99.90;;;;;;5059720;28;20052;-85
2022/01/05 00:04:39;;;;;;;0.00;0.00;;;2.60;99.90;;;;;;5059796;28;20075;-85
2022/01/05 00:07:06;;;;;;;0.00;0.00;;;2.60;99.90;;;;;;5060175;28;20480;-85
2022/01/05 00:09:32;;;;;;;0.00;0.00;;;2.60;99.90;;;;;;5076493;28;20041;-85
2022/01/05 00:11:58;;;;;;;0.00;0.00;;;2.60;99.90;;;;;;5060214;28;20048;-85
2022/01/05 00:14:24;;;;;;;0.00;0.00;;;2.60;99.90;;;;;;5063833;28;20052;-85
2022/01/05 00:16:50;;;;;;;0.00;0.00;;;2.60;99.90;;;;;;5063461;28;20039;-85
2022/01/05 00:19:16;;;;;;;0.00;0.00;;;2.60;99.90;;;;;;5080324;28;20392;-85
2022/01/05 00:21:42;;;;;;;0.00;0.00;;;2.50;99.90;;;;;;5063605;28;20054;-85
2022/01/05 00:24:08;;;;;;;0.47;0.32;;;2.60;99.90;;;;;;5063476;28;20044;-85
2022/01/05 00:26:34;;;;;;;0.00;0.00;;;2.80;99.90;;;;;;5079345;28;20391;-84
2022/01/05 00:29:01;;;;;;;0.00;0.00;;;2.60;99.90;;;;;;5078960;28;20047;-85
2022/01/05 00:31:27;;;;;;;1.73;0.65;;;2.60;99.90;;;;;;5062279;28;20048;-85
2022/01/05 00:33:53;;;;;;;0.00;0.00;;;2.60;99.90;;;;;;5062137;28;20080;-85
2022/01/05 00:36:19;;;;;;;2.42;0.63;;;2.70;99.90;;;;;;5061958;28;20048;-85
2022/01/05 00:38:46;;;;;;;20.83;0.60;;;2.80;99.90;;;;;;5078952;28;20059;-85
2022/01/05 00:41:13;;;;;;;0.00;0.00;;;2.90;99.90;;;;;;5062862;28;20055;-85
2022/01/05 00:43:39;;;;;;;0.00;0.00;;;2.90;99.90;;;;;;5079624;28;20100;-85
2022/01/05 00:46:05;;;;;;;0.40;0.25;;;2.90;99.90;;;;;;5062915;28;20052;-85
2022/01/05 00:48:32;;;;;;;0.00;0.00;;;2.90;99.90;;;;;;5062953;28;20059;-85
2022/01/05 00:51:02;;;;;;;0.00;0.00;;;2.90;99.90;;;;;;5062401;28;20052;-85
2022/01/05 00:53:28;;;;;;;0.00;0.00;;;2.90;99.90;;;;;;5079367;28;20399;-85
2022/01/05 00:55:53;;;;;;;0.00;0.00;;;2.80;99.90;;;;;;5078776;28;20127;-85
2022/01/05 00:58:19;;;;;;;10.85;1.77;;;2.80;99.90;;;;;;5061448;28;20467;-85
2022/01/05 01:00:45;;;;;;;2.30;0.30;;;2.80;99.90;;;;;;5061898;28;20043;-85
2022/01/05 01:03:11;;;;;;;0.00;0.00;;;2.80;99.90;;;;;;5062488;28;20040;-85
2022/01/05 01:05:36;;;;;;;0.00;0.00;;;2.70;99.90;;;;;;5062539;28;20360;-85
2022/01/05 01:08:02;;;;;;;0.00;0.00;;;2.60;99.90;;;;;;5079504;28;20050;-85
2022/01/05 01:10:28;;;;;;;0.00;0.00;;;2.60;99.90;;;;;;5079008;28;20086;-85
2022/01/05 01:12:53;;;;;;;0.00;0.00;;;2.60;99.90;;;;;;5078595;28;20109;-85
2022/01/05 01:15:19;;;;;;;0.00;0.00;;;2.60;99.90;;;;;;5062320;28;20056;-85
2022/01/05 01:17:45;;;;;;;0.00;0.00;;;2.60;99.90;;;;;;5062043;28;20392;-85
2022/01/05 01:20:11;;;;;;;0.20;0.20;;;2.50;99.90;;;;;;5062475;28;20083;-85
2022/01/05 01:22:36;;;;;;;2.10;0.85;;;2.50;99.90;;;;;;5062142;28;20131;-85
2022/01/05 01:25:06;;;;;;;0.00;0.00;;;2.50;99.90;;;;;;5078976;28;20043;-85
2022/01/05 01:27:32;;;;;;;0.00;0.00;;;2.50;99.90;;;;;;5062034;28;20126;-85
2022/01/05 01:29:58;;;;;;;0.00;0.00;;;2.50;99.90;;;;;;5062000;28;20083;-85
2022/01/05 01:32:24;;;;;;;0.10;0.10;;;2.50;99.90;;;;;;5061473;28;20116;-84
2022/01/05 01:34:50;;;;;;;0.00;0.00;;;2.50;99.90;;;;;;5078746;28;20055;-85
2022/01/05 01:37:16;;;;;;;0.00;0.00;;;2.50;99.90;;;;;;5078839;28;20101;-85
2022/01/05 01:39:41;;;;;;;0.00;0.00;;;2.40;99.90;;;;;;5078684;28;20044;-85
2022/01/05 01:42:07;;;;;;;0.00;0.00;;;2.40;99.90;;;;;;5061215;28;20044;-85
2022/01/05 01:44:33;;;;;;;0.00;0.00;;;2.40;99.90;;;;;;5060711;28;20044;-85
2022/01/05 01:46:59;;;;;;;0.43;0.38;;;2.40;99.90;;;;;;5077160;28;20192;-85
2022/01/05 01:49:24;;;;;;;0.00;0.00;;;2.40;99.90;;;;;;5060308;28;20049;-85
2022/01/05 01:51:50;;;;;;;0.00;0.00;;;2.40;99.90;;;;;;5060375;28;20071;-85
2022/01/05 01:54:16;;;;;;;0.00;0.00;;;2.40;99.90;;;;;;5076876;28;20092;-85
2022/01/05 01:56:46;;;;;;;0.00;0.00;;;2.40;99.90;;;;;;5076002;28;20040;-85
2022/01/05 01:59:12;;;;;;;0.03;0.03;;;2.30;99.90;;;;;;5077186;28;20127;-85
2022/01/05 02:01:40;;;;;;;0.00;0.00;;;2.30;99.90;;;;;;5060290;28;20048;-86
2022/01/05 02:04:06;;;;;;;0.00;0.00;;;2.40;99.90;;;;;;5076816;28;20040;-85
2022/01/05 02:06:32;;;;;;;0.00;0.00;;;2.40;99.90;;;;;;5060264;28;20100;-85
2022/01/05 02:08:59;;;;;;;0.55;0.55;;;2.40;99.90;;;;;;5060388;28;20475;-85
2022/01/05 02:11:25;;;;;;;0.00;0.00;;;2.40;99.90;;;;;;5076620;28;20079;-85
2022/01/05 02:13:51;;;;;;;0.00;0.00;;;2.30;99.90;;;;;;5072891;28;20060;-84
2022/01/05 02:16:29;;;;;;;0.00;0.00;;;2.50;99.90;;;;;;5074323;28;20071;-85
2022/01/05 02:18:58;;;;;;;0.10;0.10;;;2.40;99.90;;;;;;5057163;28;20346;-85
2022/01/05 02:21:29;;;;;;;0.00;0.00;;;2.40;99.90;;;;;;5074638;28;20045;-85
2022/01/05 02:23:55;;;;;;;0.00;0.00;;;2.40;99.90;;;;;;5057927;28;20051;-85
2022/01/05 02:26:21;;;;;;;0.00;0.00;;;2.40;99.90;;;;;;5073236;28;20040;-85
2022/01/05 02:28:46;;;;;;;0.00;0.00;;;2.40;99.90;;;;;;5073020;28;20046;-85
2022/01/05 02:31:12;;;;;;;0.00;0.00;;;2.30;99.90;;;;;;5073995;28;20048;-85
2022/01/05 02:33:40;;;;;;;0.20;0.20;;;2.40;99.90;;;;;;5073847;28;20040;-85
2022/01/05 02:36:06;;;;;;;0.10;0.10;;;2.30;99.90;;;;;;5057467;28;20044;-85
2022/01/05 02:38:33;;;;;;;0.00;0.00;;;2.40;99.90;;;;;;5074291;28;20052;-85
2022/01/05 02:41:06;;;;;;;0.00;0.00;;;2.30;99.90;;;;;;5073826;28;20052;-85
2022/01/05 02:43:32;;;;;;;0.00;0.00;;;2.40;99.90;;;;;;5057315;28;20082;-85
2022/01/05 02:45:58;;;;;;;0.00;0.00;;;2.30;99.90;;;;;;5073863;28;20040;-85
2022/01/05 02:48:24;;;;;;;0.00;0.00;;;2.30;99.90;;;;;;5056852;28;20063;-85
2022/01/05 02:50:49;;;;;;;1.08;0.80;;;2.40;99.90;;;;;;5072780;28;20040;-85
2022/01/05 02:53:15;;;;;;;0.00;0.00;;;2.30;99.90;;;;;;5056732;28;20178;-85
2022/01/05 02:55:41;;;;;;;0.00;0.00;;;2.30;99.90;;;;;;5073654;28;20154;-85
2022/01/05 02:58:06;;;;;;;0.10;0.10;;;2.40;99.90;;;;;;5056662;28;20491;-85
2022/01/05 03:00:32;;;;;;;0.00;0.00;;;2.40;99.90;;;;;;5056013;28;20048;-85
2022/01/05 03:02:58;;;;;;;0.00;0.00;;;2.40;99.90;;;;;;5055164;28;20052;-85
2022/01/05 03:05:24;;;;;;;0.22;0.22;;;2.30;99.90;;;;;;5055829;28;20083;-85
2022/01/05 03:07:49;;;;;;;0.00;0.00;;;2.30;99.90;;;;;;5072410;28;20047;-85
2022/01/05 03:10:15;;;;;;;0.55;0.47;;;2.30;99.90;;;;;;5072916;28;20124;-85
2022/01/05 03:12:43;;;;;;;0.00;0.00;;;2.30;99.90;;;;;;5055814;28;20052;-85
2022/01/05 03:15:09;;;;;;;0.00;0.00;;;2.30;99.90;;;;;;5072732;28;20057;-85
2022/01/05 03:17:35;;;;;;;0.00;0.00;;;2.30;99.90;;;;;;5073279;28;20045;-85
2022/01/05 03:20:01;;;;;;;0.32;0.10;;;2.30;99.90;;;;;;5055689;28;20110;-85
2022/01/05 03:22:27;;;;;;;0.00;0.00;;;2.20;99.90;;;;;;5072258;28;20060;-85
2022/01/05 03:24:53;;;;;;;0.00;0.00;;;2.30;99.90;;;;;;5056005;28;20040;-85
2022/01/05 03:27:19;;;;;;;0.00;0.00;;;2.30;99.90;;;;;;5057820;28;20052;-85
2022/01/05 03:29:44;;;;;;;0.00;0.00;;;2.20;99.90;;;;;;5073815;28;20579;-85
2022/01/05 03:32:10;;;;;;;0.00;0.00;;;2.20;99.90;;;;;;5073603;28;20064;-85
2022/01/05 03:34:37;;;;;;;0.45;0.45;;;2.20;99.90;;;;;;5073271;28;20047;-86
2022/01/05 03:37:03;;;;;;;0.00;0.00;;;2.20;99.90;;;;;;5073402;28;20083;-85
2022/01/05 03:39:29;;;;;;;0.00;0.00;;;2.20;99.90;;;;;;5073031;28;20407;-85
2022/01/05 03:41:55;;;;;;;0.00;0.00;;;2.20;99.90;;;;;;5072742;28;20131;-85
2022/01/05 03:44:21;;;;;;;0.00;0.00;;;2.20;99.90;;;;;;5073448;28;20128;-85
2022/01/05 03:46:46;;;;;;;0.00;0.00;;;2.20;99.90;;;;;;5072169;28;20072;-85
2022/01/05 03:49:12;;;;;;;0.00;0.00;;;2.20;99.90;;;;;;5072466;28;20056;-86
2022/01/05 03:51:38;;;;;;;0.00;0.00;;;2.20;99.90;;;;;;5055963;28;20055;-85
2022/01/05 03:54:03;;;;;;;1.55;1.02;;;2.30;99.90;;;;;;5055464;28;20059;-85
2022/01/05 03:56:29;;;;;;;0.00;0.00;;;2.20;99.90;;;;;;5056101;28;20060;-85
2022/01/05 03:58:54;;;;;;;0.00;0.00;;;2.20;99.90;;;;;;5056560;28;20056;-85
2022/01/05 04:01:20;;;;;;;0.00;0.00;;;2.20;99.90;;;;;;5055787;28;20052;-85
2022/01/05 04:03:46;;;;;;;0.00;0.00;;;2.10;99.90;;;;;;5072528;28;20043;-85
2022/01/05 04:06:11;;;;;;;0.00;0.00;;;2.20;99.90;;;;;;5055554;28;20147;-85
2022/01/05 04:08:37;;;;;;;0.20;0.20;;;2.20;99.90;;;;;;5072070;28;20045;-85
2022/01/05 04:11:03;;;;;;;0.00;0.00;;;2.20;99.90;;;;;;5071908;28;20480;-85
2022/01/05 04:13:29;;;;;;;0.00;0.00;;;2.20;99.90;;;;;;5056644;28;20040;-85
2022/01/05 04:15:54;;;;;;;0.00;0.00;;;2.20;99.90;;;;;;5075921;28;20056;-85
2022/01/05 04:18:20;;;;;;;0.63;0.45;;;2.20;99.90;;;;;;5075385;28;20044;-85
2022/01/05 04:20:46;;;;;;;0.08;0.08;;;2.20;99.90;;;;;;5078688;28;20495;-85
2022/01/05 04:23:11;;;;;;;0.00;0.00;;;2.30;99.90;;;;;;5063078;28;20056;-85
2022/01/05 04:25:37;;;;;;;0.00;0.00;;;2.20;99.90;;;;;;5079387;28;20044;-85
2022/01/05 04:28:04;;;;;;;0.00;0.00;;;2.20;99.90;;;;;;5062548;28;20086;-85
2022/01/05 04:30:30;;;;;;;0.00;0.00;;;2.20;99.90;;;;;;5078837;28;20448;-86
2022/01/05 04:32:55;;;;;;;0.00;0.00;;;2.20;99.90;;;;;;5062106;28;20126;-86
2022/01/05 04:35:21;;;;;;;0.00;0.00;;;2.20;99.90;;;;;;5078438;28;20044;-85
2022/01/05 04:37:47;;;;;;;0.00;0.00;;;2.20;99.90;;;;;;5078711;28;20066;-85
2022/01/05 04:40:13;;;;;;;0.30;0.30;;;2.20;99.90;;;;;;5079991;28;20047;-85
2022/01/05 04:42:39;;;;;;;0.00;0.00;;;2.30;99.90;;;;;;5061719;28;20071;-86
2022/01/05 04:45:05;;;;;;;0.00;0.00;;;2.30;99.90;;;;;;5078581;28;20079;-86
2022/01/05 04:47:31;;;;;;;0.00;0.00;;;2.30;99.90;;;;;;5078455;28;20368;-86
2022/01/05 04:49:57;;;;;;;0.00;0.00;;;2.40;99.90;;;;;;5079064;28;20150;-84
2022/01/05 04:52:22;;;;;;;0.00;0.00;;;2.40;99.90;;;;;;5061653;28;20093;-85
2022/01/05 04:54:48;;;;;;;0.90;0.55;;;2.50;99.90;;;;;;5079239;28;20043;-85
2022/01/05 04:57:14;;;;;;;0.00;0.00;;;2.50;99.90;;;;;;5062850;28;20051;-87
2022/01/05 04:59:40;;;;;;;0.30;0.30;;;2.60;99.90;;;;;;5062988;28;20091;-85
2022/01/05 05:02:06;;;;;;;0.00;0.00;;;2.60;99.90;;;;;;5063199;28;20102;-85
2022/01/05 05:04:31;;;;;;;0.00;0.00;;;2.60;99.90;;;;;;5078567;28;20047;-85
2022/01/05 05:06:57;;;;;;;0.00;0.00;;;2.60;99.90;;;;;;5061445;28;20048;-85
2022/01/05 05:09:23;;;;;;;0.00;0.00;;;2.60;99.90;;;;;;5061361;28;20446;-86
2022/01/05 05:11:50;;;;;;;0.13;0.13;;;2.60;99.90;;;;;;5061052;28;20055;-85
2022/01/05 05:14:16;;;;;;;0.00;0.00;;;2.60;99.90;;;;;;5077716;28;20064;-85
2022/01/05 05:16:41;;;;;;;0.20;0.20;;;2.60;99.90;;;;;;5077702;28;20113;-85
2022/01/05 05:19:07;;;;;;;0.00;0.00;;;2.60;99.90;;;;;;5077943;28;20059;-85
2022/01/05 05:21:33;;;;;;;0.90;0.55;;;2.60;99.90;;;;;;5061626;28;20063;-85
2022/01/05 05:23:58;;;;;;;0.00;0.00;;;2.60;99.90;;;;;;5078664;28;20047;-85
2022/01/05 05:26:24;;;;;;;0.00;0.00;;;2.60;99.90;;;;;;5062155;28;20044;-85
2022/01/05 05:28:50;;;;;;;0.10;0.10;;;2.60;99.90;;;;;;5062370;28;20130;-85
2022/01/05 05:31:15;;;;;;;0.00;0.00;;;2.60;99.90;;;;;;5062143;28;20484;-85
2022/01/05 05:33:41;;;;;;;0.00;0.00;;;2.60;99.90;;;;;;5062134;28;20051;-85
2022/01/05 05:36:07;;;;;;;0.03;0.00;;;2.60;99.90;;;;;;5078693;28;20131;-85
2022/01/05 05:38:33;;;;;;;0.00;0.00;;;2.70;99.90;;;;;;5062331;28;20048;-85
2022/01/05 05:40:59;;;;;;;0.00;0.00;;;2.70;99.90;;;;;;5078256;28;20048;-85
2022/01/05 05:43:25;;;;;;;0.65;0.30;;;2.80;99.90;;;;;;5061275;28;20094;-85
2022/01/05 05:45:51;;;;;;;0.00;0.00;;;2.80;99.90;;;;;;5062130;28;20052;-85
2022/01/05 05:48:16;;;;;;;0.00;0.00;;;3.20;99.90;;;;;;5062143;28;20083;-85
2022/01/05 05:50:42;;;;;;;0.00;0.00;;;2.90;99.90;;;;;;5061606;28;20125;-85
2022/01/05 05:53:08;;;;;;;0.00;0.00;;;2.90;99.90;;;;;;5061216;28;20567;-86
2022/01/05 05:55:34;;;;;;;0.00;0.00;;;2.90;99.90;;;;;;5078457;28;20455;-85
2022/01/05 05:58:00;;;;;;;0.00;0.00;;;2.90;99.90;;;;;;5078163;28;20052;-85
2022/01/05 06:00:26;;;;;;;0.20;0.20;;;2.90;99.90;;;;;;5061394;28;20127;-85
2022/01/05 06:02:52;;;;;;;0.10;0.10;;;2.90;99.90;;;;;;5078211;28;20447;-85
2022/01/05 06:05:18;;;;;;;0.10;0.10;;;2.90;99.90;;;;;;5076825;28;20055;-85
2022/01/05 06:07:43;;;;;;;0.00;0.00;;;2.90;99.90;;;;;;5060817;28;20051;-85
2022/01/05 06:10:10;;;;;;;0.00;0.00;;;2.90;99.90;;;;;;5078056;28;20047;-85
2022/01/05 06:12:35;;;;;;;0.00;0.00;;;3.00;99.90;;;;;;5077779;28;20040;-85
2022/01/05 06:15:01;;;;;;;0.00;0.00;;;3.00;99.90;;;;;;5076980;28;20063;-86
2022/01/05 06:17:27;;;;;;;3.30;0.90;;;3.00;99.90;;;;;;5076838;28;20050;-85
2022/01/05 06:19:52;;;;;;;0.00;0.00;;;3.10;99.90;;;;;;5061155;28;20478;-85
2022/01/05 06:22:18;;;;;;;0.08;0.08;;;3.10;99.90;;;;;;5076743;28;20044;-85
2022/01/05 06:24:44;;;;;;;2.67;0.63;;;3.10;99.90;;;;;;5060278;28;20548;-85
2022/01/05 06:27:11;;;;;;;0.00;0.00;;;3.20;99.90;;;;;;5077164;28;20048;-85
2022/01/05 06:29:38;;;;;;;0.55;0.55;;;3.20;99.90;;;;;;5077432;28;20063;-85
2022/01/05 06:32:04;;;;;;;0.00;0.00;;;3.30;99.90;;;;;;5076389;28;20040;-85
2022/01/05 06:34:30;;;;;;;0.00;0.00;;;3.30;99.90;;;;;;5059728;28;20071;-84
2022/01/05 06:36:56;;;;;;;0.05;0.05;;;3.30;99.90;;;;;;5059402;28;20499;-85
2022/01/05 06:39:22;;;;;;;0.90;0.55;;;3.30;99.90;;;;;;5076826;28;20044;-84
2022/01/05 06:41:47;;;;;;;0.00;0.00;;;3.40;99.90;;;;;;5075878;28;20505;-84
2022/01/05 06:44:13;;;;;;;3.90;0.52;;;3.40;99.90;;;;;;5076517;28;20044;-84
2022/01/05 06:46:39;;;;;;;0.00;0.00;;;3.40;99.90;;;;;;5076226;28;20056;-84
2022/01/05 06:49:04;;;;;;;0.00;0.00;;;3.40;99.90;;;;;;5076776;28;20494;-85
2022/01/05 06:51:30;;;;;;;0.00;0.00;;;3.50;99.90;;;;;;5076118;28;20052;-85
2022/01/05 06:53:56;;;;;;;0.00;0.00;;;3.50;99.90;;;;;;5076367;28;20059;-85
2022/01/05 06:56:22;;;;;;;3.20;0.75;;;3.50;99.90;;;;;;5059822;28;20560;-85
2022/01/05 06:58:47;;;;;;;0.10;0.10;;;3.50;99.90;;;;;;5059163;28;20082;-86
2022/01/05 07:01:13;;;;;;;0.00;0.00;;;3.50;99.90;;;;;;5075698;28;20083;-85
2022/01/05 07:03:39;;;;;;;0.00;0.00;;;3.50;99.90;;;;;;5058968;28;20063;-86
2022/01/05 07:06:05;;;;;;;0.32;0.20;;;3.60;99.90;;;;;;5060572;28;20040;-86
2022/01/05 07:08:30;;;;;;;0.00;0.00;;;3.60;99.90;;;;;;5059744;28;20048;-86
2022/01/05 07:10:56;;;;;;;0.00;0.00;;;3.60;99.90;;;;;;5059164;28;20051;-86
2022/01/05 07:13:22;;;;;;;0.00;0.00;;;3.60;99.90;;;;;;5076093;28;20075;-87
2022/01/05 07:15:49;;;;;;;0.00;0.00;;;3.50;99.90;;;;;;5072981;28;20048;-87
2022/01/05 07:18:15;;;;;;;0.10;0.10;;;3.50;99.90;;;;;;5062170;28;20044;-87
2022/01/05 07:20:40;;;;;;;0.00;0.00;;;3.50;99.90;;;;;;5039121;28;20066;-87
2022/01/05 07:23:06;;;;;;;0.80;0.63;;;3.40;99.90;;;;;;5055683;28;20055;-87
2022/01/05 07:25:32;;;;;;;0.00;0.00;;;3.40;99.90;;;;;;5055867;28;20063;-88
2022/01/05 07:27:57;;;;;;;0.00;0.00;;;3.30;99.90;;;;;;5038849;28;20097;-88
2022/01/05 07:30:23;;;;;;;0.00;0.00;;;3.30;99.90;;;;;;5039136;28;20052;-89
2022/01/05 07:32:49;;;;;;;0.00;0.00;;;3.20;99.90;;;;;;5074290;28;20051;-88
2022/01/05 07:35:17;;;;;;;5.47;1.80;;;3.30;99.90;;;;;;5057319;28;20396;-88
2022/01/05 07:37:43;;;;;;;0.00;0.00;;;3.20;99.90;;;;;;5056172;28;20044;-86
2022/01/05 07:40:09;;;;;;;0.00;0.00;;;3.20;99.90;;;;;;5055726;28;20049;-87
2022/01/05 07:42:35;;;;;;;0.00;0.00;;;3.10;99.90;;;;;;5038835;28;20495;-86
2022/01/05 07:45:06;;;;;;;0.00;0.00;;;3.10;99.90;;;;;;5055188;28;20045;-86
2022/01/05 07:47:32;;;;;;;0.00;0.00;;;3.00;99.90;;;;;;5055782;28;20052;-87
2022/01/05 07:49:57;;;;;;;0.75;0.10;;;3.50;99.90;;;;;;5056211;28;20827;-86
2022/01/05 07:52:23;;;;;;;0.00;0.00;;;3.00;99.90;;;;;;5043256;28;20040;-86
2022/01/05 07:54:51;;;;;;;0.00;0.00;;;2.90;99.90;;;;;;5061334;28;20087;-86
2022/01/05 07:57:17;;;;;;;0.00;0.00;;;2.90;99.90;;;;;;5063086;28;20044;-88
2022/01/05 07:59:42;;;;;;;0.10;0.10;;;2.90;99.90;;;;;;5078732;28;20043;-87
2022/01/05 08:02:08;;;;;;;0.00;0.00;;;2.90;99.90;;;;;;5078989;28;20085;-87
2022/01/05 08:04:34;;;;;;;0.00;0.00;;;2.90;99.90;;;;;;5079248;28;20051;-87
2022/01/05 08:06:59;;;;;;;0.00;0.00;;;2.80;99.90;;;;;;5062672;28;20095;-87
2022/01/05 08:09:25;;;;;;;0.03;0.03;;;2.90;99.90;;;;;;5079460;28;20134;-88
2022/01/05 08:11:50;;;;;;;0.00;0.00;;;2.90;99.90;;;;;;5062281;28;20102;-88
2022/01/05 08:14:16;;;;;;;0.00;0.00;;;2.90;99.90;;;;;;5078659;28;20144;-87
2022/01/05 08:16:42;;;;;;;0.00;0.00;;;2.90;99.90;;;;;;5060973;28;20048;-86
2022/01/05 08:19:08;;;;;;;0.00;0.00;;;3.00;99.90;;;;;;5078939;28;20044;-87
2022/01/05 08:21:33;;;;;;;0.00;0.00;;;3.10;99.90;;;;;;5079803;28;20449;-88
2022/01/05 08:23:59;;;;;;;0.00;0.00;;;3.20;99.90;;;;;;5062770;28;20067;-89
2022/01/05 08:26:25;;;;;;;0.00;0.00;;;3.40;99.90;;;;;;5067192;28;20048;-88
2022/01/05 08:28:51;;;;;;;0.00;0.00;;;3.40;99.90;;;;;;5067203;28;20043;-87
2022/01/05 08:31:17;;;;;;;0.22;0.10;;;3.60;99.90;;;;;;5082689;28;20555;-89
2022/01/05 08:33:42;;;;;;;0.00;0.00;;;3.70;99.90;;;;;;5066965;28;20047;-88
2022/01/05 08:36:08;;;;;;;6.00;0.52;;;3.80;99.90;;;;;;5068101;28;20083;-89
2022/01/05 08:38:35;;;;;;;0.00;0.00;;;3.90;99.90;;;;;;5067235;28;20147;-91
2022/01/05 08:41:01;;;;;;;0.00;0.00;;;4.00;99.90;;;;;;5067816;28;20103;-90
2022/01/05 08:43:26;;;;;;;0.30;0.30;;;4.10;99.90;;;;;;5051523;28;20052;-91
2022/01/05 08:45:52;;;;;;;0.00;0.00;;;4.10;99.90;;;;;;5072670;28;20075;-93
2022/01/05 08:48:18;;;;;;;0.00;0.00;;;4.20;99.90;;;;;;5050604;28;20044;-92
2022/01/05 08:50:44;;;;;;;0.10;0.10;;;4.30;99.90;;;;;;5059721;28;20044;-94
2022/01/05 08:53:09;;;;;;;0.13;0.13;;;4.30;99.90;;;;;;5043471;28;20060;-90
2022/01/05 08:55:46;;;;;;;0.17;0.17;;;4.30;99.90;;;;;;5060895;28;20045;-88
2022/01/05 08:58:13;;;;;;;8.38;1.55;;;4.40;99.90;;;;;;5057199;28;20400;-88
2022/01/05 09:00:39;;;;;;;0.00;0.00;;;4.40;99.90;;;;;;5063534;28;20399;-88
2022/01/05 09:03:05;;;;;;;0.00;0.00;;;4.50;99.90;;;;;;5049550;28;20162;-89
2022/01/05 09:05:32;;;;;;;0.00;0.00;;;4.50;99.90;;;;;;5060776;28;20040;-92
2022/01/05 09:07:57;;;;;;;0.00;0.00;;;4.60;99.90;;;;;;5053486;28;20044;-91
2022/01/05 09:10:23;;;;;;;0.05;0.05;;;4.60;99.90;;;;;;5051464;28;20047;-91
2022/01/05 09:12:49;;;;;;;0.00;0.00;;;4.60;99.90;;;;;;5066633;28;20044;-92
2022/01/05 09:15:15;;;;;;;0.00;0.00;;;4.60;99.90;;;;;;5046037;28;20496;-94
2022/01/05 09:17:41;;;;;;;0.00;0.00;;;4.70;99.90;;;;;;5054272;28;20106;-94
2022/01/05 09:20:08;;;;;;;0.00;0.00;;;4.70;99.90;;;;;;5068467;28;20040;-96
2022/01/05 09:22:38;;;;;;;0.00;0.00;;;4.70;99.90;;;;;;5073348;28;20044;-95
2022/01/05 09:25:10;;;;;;;0.00;0.00;;;4.80;99.90;;;;;;5050395;28;20502;-94
2022/01/05 09:27:36;;;;;;;0.00;0.00;;;4.80;99.90;;;;;;5072204;28;20040;-96
2022/01/05 09:30:07;;;;;;;0.00;0.00;;;5.70;99.90;;;;;;5043888;28;20460;-89
2022/01/05 09:32:34;;;;;;;0.00;0.00;;;5.00;99.90;;;;;;5083158;28;20498;-87
2022/01/05 09:34:59;;;;;;;0.00;0.00;;;5.20;99.90;;;;;;5090195;28;20048;-87
2022/01/05 09:37:33;;;;;;;0.00;0.00;;;5.20;99.90;;;;;;5040967;28;20555;-87
2022/01/05 09:42:43;;;;;;;0.00;0.00;;;6.70;99.90;;;;;;5057220;28;20139;-87
2022/01/05 09:45:15;;;;;;;0.00;0.00;;;5.20;99.90;;;;;;5040595;28;20060;-87
2022/01/05 09:47:53;;;;;;;1.45;0.25;;;5.30;99.90;;;;;;5056700;28;20127;-88
2022/01/05 09:50:19;;;;;;;0.00;0.00;;;5.20;99.90;;;;;;5040122;28;20536;-89
2022/01/05 09:52:46;;;;;;;0.00;0.00;;;5.30;99.90;;;;;;5056543;28;20484;-87
2022/01/05 09:55:13;;;;;;;0.10;0.10;;;5.70;99.90;;;;;;5057019;28;20102;-88
2022/01/05 09:57:42;;;;;;;0.00;0.00;;;6.10;99.90;;;;;;5056744;28;20136;-87
2022/01/05 10:00:10;;;;;;;0.00;0.00;;;6.00;99.90;;;;;;5039980;28;20096;-87
2022/01/05 10:02:37;;;;;;;0.00;0.00;;;5.60;99.90;;;;;;5071522;28;20089;-88
2022/01/05 10:05:03;;;;;;;2.83;0.68;;;5.60;99.90;;;;;;5059756;28;20051;-87
2022/01/05 10:07:37;;;;;;;0.00;0.00;;;5.80;99.90;;;;;;5060326;28;20495;-87
2022/01/05 10:10:03;;;;;;;0.35;0.35;;;5.90;99.90;;;;;;5077700;28;20044;-87
2022/01/05 10:12:29;;;;;;;0.80;0.47;;;5.90;99.90;;;;;;5077506;28;20407;-87
2022/01/05 10:14:55;;;;;;;0.00;0.00;;;5.80;99.90;;;;;;5061175;28;20082;-87
2022/01/05 10:17:29;;;;;;;0.10;0.10;;;5.80;99.90;;;;;;5058710;28;20159;-88
2022/01/05 10:19:59;;;;;;;0.00;0.00;;;5.70;99.90;;;;;;5039797;28;20097;-86
2022/01/05 10:22:38;;;;;;;0.00;0.00;;;5.70;99.90;;;;;;5056671;28;20047;-87
2022/01/05 10:25:08;;;;;;;0.00;0.00;;;5.70;99.90;;;;;;5058237;28;20078;-87
2022/01/05 10:27:35;;;;;;;0.00;0.00;;;5.70;99.90;;;;;;5057181;28;20437;-87
2022/01/05 10:30:10;;;;;;;0.30;0.30;;;5.70;99.90;;;;;;5057317;28;20063;-86
2022/01/05 10:32:36;;;;;;;;;;;5.70;99.90;;;;;;5041524;28;20032;-88
2022/01/05 10:35:12;;;;;;;7.03;0.50;;;5.70;99.90;;;;;;5042307;28;19921;-88
2022/01/05 10:37:44;;;;;;;0.20;0.20;;;5.70;99.90;;;;;;5040594;28;20494;-88
2022/01/05 10:40:13;;;;;;;0.10;0.10;;;5.80;99.90;;;;;;5058615;28;20119;-88
2022/01/05 10:42:40;;;;;;;0.17;0.17;;;5.80;99.90;;;;;;5055890;28;20525;-87
2022/01/05 10:45:09;;;;;;;0.00;0.00;;;5.90;99.90;;;;;;5039298;28;20051;-87
2022/01/05 10:47:35;;;;;;;0.50;0.28;;;6.10;99.90;;;;;;5056556;28;20377;-86
2022/01/05 10:50:03;;;;;;;0.00;0.00;;;6.50;99.90;;;;;;5065165;28;20039;-88
2022/01/05 10:52:35;;;;;;;0.40;0.32;;;6.80;99.90;;;;;;5053089;28;20051;-87
2022/01/05 10:55:16;;;;;;;2.42;0.43;;;7.00;99.90;;;;;;5054009;28;20126;-87
2022/01/05 10:58:05;;;;;;;0.00;0.00;;;7.40;99.90;;;;;;5059579;28;20047;-86
2022/01/05 11:00:40;;;;;;;0.80;0.80;;;7.90;99.90;;;;;;5059146;28;20048;-87
2022/01/05 11:03:30;;;;;;;1.65;0.40;;;7.90;99.90;;;;;;5059391;28;20051;-87
2022/01/05 11:06:08;;;;;;;0.00;0.00;;;8.10;99.90;;;;;;5075961;28;20055;-86
2022/01/05 11:09:00;;;;;;;0.55;0.32;;;8.40;99.90;;;;;;5060189;28;20044;-86
2022/01/05 11:11:32;;;;;;;0.10;0.10;;;8.20;99.90;;;;;;5059289;28;20097;-87
2022/01/05 11:13:58;;;;;;;0.95;0.95;;;8.00;99.90;;;;;;5075695;28;20487;-87
2022/01/05 11:16:28;;;;;;;0.25;0.25;;;8.10;99.90;;;;;;5075994;28;20130;-87
2022/01/05 11:19:18;;;;;;;1.65;0.65;;;8.00;99.90;;;;;;5060506;28;20475;-87
2022/01/05 11:22:03;;;;;;;0.10;0.00;;;7.90;99.90;;;;;;5050722;28;20051;-87
2022/01/05 11:24:32;;;;;;;0.03;0.03;;;7.80;99.90;;;;;;5077512;28;20097;-87
2022/01/05 11:26:58;;;;;;;0.00;0.00;;;8.00;99.90;;;;;;5077078;28;20100;-87
2022/01/05 11:29:24;;;;;;;0.77;0.22;;;8.60;99.90;;;;;;5061811;28;20040;-86
2022/01/05 11:31:50;;;;;;;0.00;0.00;;;9.10;99.90;;;;;;5081283;28;20044;-88
2022/01/05 11:34:15;;;;;;;0.20;0.17;;;9.60;99.90;;;;;;5081380;28;20372;-87
2022/01/05 11:36:42;;;;;;;0.00;0.00;;;9.80;99.90;;;;;;5079677;28;20059;-88
2022/01/05 11:39:09;;;;;;;6.03;1.75;;;9.90;99.90;;;;;;5063800;28;20051;-87
2022/01/05 11:41:45;;;;;;;0.00;0.00;;;10.20;99.90;;;;;;5080308;28;20156;-86
2022/01/05 11:44:11;;;;;;;0.00;0.00;;;9.80;99.90;;;;;;5064219;28;20052;-85
2022/01/05 11:46:37;;;;;;;0.20;0.15;;;10.00;99.90;;;;;;5080346;28;20387;-87
2022/01/05 11:49:05;;;;;;;2.35;0.93;;;10.60;99.90;;;;;;5062924;28;20047;-87
2022/01/05 11:51:48;;;;;;;0.10;0.10;;;10.20;99.90;;;;;;5080462;28;20047;-86
2022/01/05 11:54:32;;;;;;;0.00;0.00;;;10.00;99.90;;;;;;5063811;28;20048;-86
2022/01/05 11:57:09;;;;;;;0.23;0.23;;;10.10;99.90;;;;;;5062860;28;20140;-86
2022/01/05 11:59:37;;;;;;;28.75;2.08;;;9.90;99.90;;;;;;5079374;28;20286;-86
2022/01/05 12:02:13;;;;;;;0.00;0.00;;;9.50;99.90;;;;;;5062701;28;20048;-88
2022/01/05 12:04:57;;;;;;;0.00;0.00;;;9.10;99.90;;;;;;5062480;28;20062;-90
2022/01/05 12:07:46;;;;;;;1.23;0.70;;;8.80;99.90;;;;;;5062699;28;20517;-89
2022/01/05 12:10:21;;;;;;;0.00;0.00;;;8.80;99.90;;;;;;5062845;28;20059;-90
2022/01/05 12:13:05;;;;;;;0.10;0.10;;;9.00;99.90;;;;;;5063110;28;20069;-90
2022/01/05 12:15:56;;;;;;;0.00;0.00;;;8.80;99.90;;;;;;5062450;28;20056;-90
2022/01/05 12:18:38;;;;;;;0.00;0.00;;;8.80;99.90;;;;;;5063591;28;20044;-89
2022/01/05 12:21:04;;;;;;;7.22;0.73;;;8.40;99.90;;;;;;5063528;28;20052;-89
2022/01/05 12:23:31;;;;;;;0.00;0.00;;;8.30;99.90;;;;;;5064182;28;20150;-89
2022/01/05 12:26:07;;;;;;;0.00;0.00;;;7.90;99.90;;;;;;5080627;28;20083;-90
2022/01/05 12:28:36;;;;;;;0.00;0.00;;;7.80;99.90;;;;;;5080493;28;20043;-89
2022/01/05 12:31:02;;;;;;;0.00;0.00;;;7.70;99.90;;;;;;5080762;28;20080;-90
2022/01/05 12:33:48;;;;;;;0.00;0.00;;;7.60;99.90;;;;;;5080566;28;20040;-89
2022/01/05 12:36:30;;;;;;;0.03;0.03;;;7.40;99.90;;;;;;5080657;28;20132;-89
2022/01/05 12:38:56;;;;;;;0.00;0.00;;;7.60;99.90;;;;;;5064742;28;20101;-89
2022/01/05 12:41:30;;;;;;;0.00;0.00;;;7.60;99.90;;;;;;5063789;28;20040;-89
2022/01/05 12:43:58;;;;;;;0.00;0.00;;;7.80;99.90;;;;;;5063694;28;20476;-89
2022/01/05 12:46:45;;;;;;;0.00;0.00;;;8.00;99.90;;;;;;5062218;28;20040;-89
2022/01/05 12:49:26;;;;;;;0.15;0.15;;;8.10;99.90;;;;;;5064177;28;20488;-90
2022/01/05 12:52:04;;;;;;;1.38;0.10;;;8.20;99.90;;;;;;5063667;28;20126;-89
2022/01/05 12:54:44;;;;;;;0.00;0.00;;;8.00;99.90;;;;;;5081546;28;20368;-90
2022/01/05 12:57:19;;;;;;;0.10;0.10;;;8.00;99.90;;;;;;5063605;28;20052;-89
2022/01/05 12:59:47;;;;;;;;;;;7.80;99.90;;;;;;5067869;28;20449;-88
2022/01/05 13:02:22;;;;;;;0.00;0.00;;;8.10;99.90;;;;;;5043710;28;19942;-89
2022/01/05 13:04:49;;;;;;;0.00;0.00;;;8.00;99.90;;;;;;5043184;28;20040;-89